Vb Andalucia — ECFI — position and weather

sailwx.info

Track history (hours):
 
Tides and Currents Weather Stations Pressure Air Temp Water Temp Dewpoint Dewpoint Depression Visibility Wind Speed Wind Dir Waves Ship Positions

Vb Andalucia

Last reported at 2015-Mar-06 05:33 UTC. Time now 2015-Mar-06 06:07 UTC.
Position N 36°08' W 005°26'.

Length 30 m; draft 5.8 m.

Type: Tug. MMSI: 224117450.

Date/timePositionNaut miles runAvg speedWind from/ knotsBaromVisibWave heightAir tempDewpointWater temp
2015-Mar-06 05:33N 36°08' W 005°26'0 0.0
2015-Mar-06 04:33N 36°08' W 005°26'0 0.0
2015-Mar-06 03:33N 36°08' W 005°26'0 0.4
2015-Mar-06 02:32N 36°08' W 005°25'1 1.1
2015-Mar-06 01:33N 36°09' W 005°26'1 0.9
2015-Mar-06 00:27N 36°08' W 005°26'0 0.0
2015-Mar-05 23:30N 36°08' W 005°26'0 0.0
2015-Mar-05 22:31N 36°08' W 005°26'0 0.0
2015-Mar-05 21:21N 36°08' W 005°26'0 0.0
2015-Mar-05 20:33N 36°08' W 005°26'0 0.0
2015-Mar-05 16:28N 36°08' W 005°26'1 0.6
2015-Mar-05 15:33N 36°08' W 005°25'0 0.3
2015-Mar-05 14:09N 36°08' W 005°26'0 0.0
2015-Mar-05 13:23N 36°08' W 005°26'0 0.1
2015-Mar-05 11:08N 36°08' W 005°26'3 3.2
2015-Mar-05 10:13N 36°11' W 005°24'2 3.3
2015-Mar-05 09:33N 36°09' W 005°26'1 0.7
2015-Mar-05 08:33N 36°08' W 005°25'1 0.5
2015-Mar-05 07:33N 36°08' W 005°26'0 0.2
2015-Mar-05 06:23N 36°08' W 005°25'0 0.0
2015-Mar-05 03:28N 36°08' W 005°26'1 0.6
2015-Mar-05 02:32N 36°08' W 005°26'1 0.7
2015-Mar-05 01:32N 36°08' W 005°26'0 0.4
2015-Mar-05 00:31N 36°09' W 005°25'1 0.6
2015-Mar-04 23:31N 36°08' W 005°26'0 0.5
2015-Mar-04 22:33N 36°08' W 005°25'0 0.2
2015-Mar-04 21:33N 36°07' W 005°25'0 0.4
2015-Mar-04 20:22N 36°08' W 005°25'0 0.1
2015-Mar-04 18:29N 36°08' W 005°26'1 0.7
2015-Mar-04 17:24N 36°08' W 005°25'1 0.2
2015-Mar-04 13:11N 36°08' W 005°26'0 0.0
2015-Mar-04 07:33N 36°08' W 005°26'0 0.5
2015-Mar-04 06:33N 36°08' W 005°26'0 0.3
2015-Mar-04 05:06N 36°08' W 005°26'0 0.0
2015-Mar-04 03:31N 36°08' W 005°26'0 0.0
2015-Mar-04 02:07N 36°08' W 005°26'1 1.3
2015-Mar-04 01:32N 36°09' W 005°26'1 0.7
2015-Mar-04 00:28N 36°08' W 005°25'0 0.3
2015-Mar-03 23:14N 36°08' W 005°26'0 0.0
2015-Mar-03 21:04N 36°08' W 005°26'0 0.0
2015-Mar-03 20:06N 36°08' W 005°26'0 0.1
2015-Mar-03 16:13N 36°08' W 005°26'0 0.0
2015-Mar-03 15:26N 36°08' W 005°26'0 0.4
2015-Mar-03 14:33N 36°08' W 005°26'1 0.3
2015-Mar-03 12:31N 36°08' W 005°25'0 0.0
2015-Mar-03 09:03N 36°08' W 005°25'0 0.9
2015-Mar-03 08:33N 36°08' W 005°25'0 0.1
2015-Mar-03 05:18N 36°08' W 005°26'0 0.0
2015-Mar-03 04:28N 36°08' W 005°26'0 0.0
2015-Mar-03 03:04N 36°08' W 005°26'0 0.1
2015-Mar-02 21:33N 36°08' W 005°26'1 0.1
2015-Mar-02 15:15N 36°08' W 005°25'0 0.2
2015-Mar-02 14:33N 36°08' W 005°25'0 0.1
2015-Mar-02 12:22N 36°08' W 005°25'1 1.3
2015-Mar-02 11:33N 36°07' W 005°25'2 0.3
2015-Mar-02 04:25N 36°09' W 005°25'1 0.2
2015-Mar-01 22:33N 36°08' W 005°26'0 0.0
2015-Mar-01 21:33N 36°08' W 005°26'0 0.0
2015-Mar-01 20:33N 36°08' W 005°26'0 0.0
2015-Mar-01 19:22N 36°08' W 005°26'0 0.5
2015-Mar-01 18:33N 36°08' W 005°25'0 0.4
2015-Mar-01 17:33N 36°08' W 005°26'0 0.0
2015-Mar-01 10:21N 36°08' W 005°26'0 0.1
2015-Mar-01 09:09N 36°08' W 005°26'0 0.2
2015-Mar-01 06:33N 36°08' W 005°25'0 0.2
2015-Mar-01 05:10N 36°08' W 005°26'0 0.8
2015-Mar-01 04:33N 36°08' W 005°25'0 0.2
2015-Mar-01 02:20N 36°08' W 005°26'0 0.3
2015-Mar-01 01:27N 36°08' W 005°26'1 0.5
2015-Mar-01 00:21N 36°09' W 005°25'1 0.2
2015-Feb-28 20:05N 36°08' W 005°26'0 0.0
2015-Feb-28 19:20N 36°08' W 005°26'0 0.5
2015-Feb-28 18:33N 36°08' W 005°25'0 0.1
2015-Feb-28 14:33N 36°07' W 005°25'2 0.2
2015-Feb-28 07:21N 36°09' W 005°26'0 0.2
2015-Feb-28 06:31N 36°09' W 005°26'1 1.0
2015-Feb-28 05:33N 36°08' W 005°26'1 0.7
2015-Feb-28 04:29N 36°09' W 005°26'1 0.8
2015-Feb-28 03:33N 36°08' W 005°26'0 0.0
2015-Feb-28 02:33N 36°08' W 005°26'0 0.0
2015-Feb-28 01:33N 36°08' W 005°26'0 0.0
2015-Feb-28 00:31N 36°08' W 005°26'0 0.0
2015-Feb-27 23:33N 36°08' W 005°26'0 0.0
2015-Feb-27 22:33N 36°08' W 005°26'0 0.0
2015-Feb-27 21:33N 36°08' W 005°26'0 0.0
2015-Feb-27 20:33N 36°08' W 005°26'0 0.0
2015-Feb-27 19:33N 36°08' W 005°26'0 0.0
2015-Feb-27 18:23N 36°08' W 005°26'0 0.0
2015-Feb-27 17:30N 36°08' W 005°26'0 0.0
2015-Feb-27 16:20N 36°08' W 005°26'0 0.0
2015-Feb-27 15:33N 36°08' W 005°26'0 0.0
2015-Feb-27 14:33N 36°08' W 005°26'1 0.6
2015-Feb-27 13:33N 36°09' W 005°26'1 1.0
2015-Feb-27 12:33N 36°09' W 005°25'1 0.8
2015-Feb-27 11:17N 36°08' W 005°26'0 0.0
2015-Feb-27 10:28N 36°08' W 005°26'0 0.0
2015-Feb-27 09:19N 36°08' W 005°26'0 0.0
2015-Feb-27 08:32N 36°08' W 005°26'0 0.0
2015-Feb-27 07:33N 36°08' W 005°26'0 0.0
2015-Feb-27 06:33N 36°08' W 005°26'0 0.0
2015-Feb-27 05:33N 36°08' W 005°26'0 0.0
2015-Feb-27 04:33N 36°08' W 005°26'0 0.0
2015-Feb-27 03:33N 36°08' W 005°26'0 0.0
2015-Feb-27 02:33N 36°08' W 005°26'0 0.0
2015-Feb-27 01:30N 36°08' W 005°26'0 0.0
2015-Feb-27 00:33N 36°08' W 005°26'0 0.0
2015-Feb-26 23:33N 36°08' W 005°26'0 0.0
2015-Feb-26 22:33N 36°08' W 005°26'0 0.0
2015-Feb-26 21:33N 36°08' W 005°26'0 0.0
2015-Feb-26 20:31N 36°08' W 005°26'0 0.0
2015-Feb-26 18:31N 36°08' W 005°26'0 0.1
2015-Feb-26 14:20N 36°08' W 005°26'1 1.2
2015-Feb-26 13:16N 36°09' W 005°24'1 1.5
2015-Feb-26 12:18N 36°09' W 005°26'1 0.3
2015-Feb-26 10:30N 36°09' W 005°25'1 0.4
2015-Feb-26 08:33N 36°08' W 005°26'0 0.0
2015-Feb-26 07:29N 36°08' W 005°26'0 0.0
2015-Feb-26 05:32N 36°08' W 005°26'0 0.0
2015-Feb-26 04:32N 36°08' W 005°26'0 0.0
2015-Feb-26 03:32N 36°08' W 005°26'0 0.0
2015-Feb-26 02:21N 36°08' W 005°26'0 0.0
2015-Feb-26 01:33N 36°08' W 005°26'0 0.0
2015-Feb-26 00:33N 36°08' W 005°26'0 0.0
2015-Feb-25 23:30N 36°08' W 005°26'0 0.0
2015-Feb-25 22:33N 36°08' W 005°26'0 0.0
2015-Feb-25 21:33N 36°08' W 005°26'1 0.5
2015-Feb-25 20:25N 36°09' W 005°26'1 0.4
2015-Feb-25 19:05N 36°08' W 005°26'1 0.9
2015-Feb-25 18:32N 36°09' W 005°26'0 0.4
2015-Feb-25 17:31N 36°09' W 005°26'1 0.9
2015-Feb-25 16:33N 36°08' W 005°26'0 0.0
2015-Feb-25 15:33N 36°08' W 005°26'0 0.0
2015-Feb-25 14:31N 36°08' W 005°26'1 1.1
2015-Feb-25 13:29N 36°09' W 005°25'1 1.3
2015-Feb-25 12:33N 36°08' W 005°26'1 0.6
2015-Feb-25 11:32N 36°09' W 005°26'1 0.6
2015-Feb-25 10:05N 36°08' W 005°26'0 0.0
2015-Feb-25 08:20N 36°08' W 005°26'0 0.1
2015-Feb-25 07:33N 36°08' W 005°26'0 0.3
2015-Feb-25 06:24N 36°08' W 005°26'1 1.0
2015-Feb-25 05:33N 36°09' W 005°26'1 0.8
2015-Feb-25 04:27N 36°08' W 005°26'0 0.0
2015-Feb-25 03:18N 36°08' W 005°26'0 0.3
2015-Feb-25 02:25N 36°08' W 005°26'0 0.3
2015-Feb-25 01:21N 36°08' W 005°26'1 1.0
2015-Feb-25 00:33N 36°09' W 005°26'0 0.5
2015-Feb-24 23:33N 36°08' W 005°26'0 0.3
2015-Feb-24 22:33N 36°08' W 005°26'0 0.0
2015-Feb-24 18:04N 36°08' W 005°26'1 0.9
2015-Feb-24 17:08N 36°09' W 005°26'1 0.1
2015-Feb-24 08:11N 36°08' W 005°26'1 1.0
2015-Feb-24 07:15N 36°09' W 005°26'1 1.0
2015-Feb-24 06:32N 36°08' W 005°26'  
Track history (hours):
 
Tides and Currents Weather Stations Pressure Air Temp Water Temp Dewpoint Dewpoint Depression Visibility Wind Speed Wind Dir Waves Ship Positions

Vb Andalucia

Last reported at 2015-Mar-06 05:33 UTC. Time now 2015-Mar-06 06:07 UTC.
Position N 36°08' W 005°26'.

Length 30 m; draft 5.8 m.

Type: Tug. MMSI: 224117450.

Date/timePositionNaut miles runAvg speedWind from/ knotsBaromVisibWave heightAir tempDewpointWater temp
2015-Mar-06 05:33N 36°08' W 005°26'0 0.0
2015-Mar-06 04:33N 36°08' W 005°26'0 0.0
2015-Mar-06 03:33N 36°08' W 005°26'0 0.4
2015-Mar-06 02:32N 36°08' W 005°25'1 1.1
2015-Mar-06 01:33N 36°09' W 005°26'1 0.9
2015-Mar-06 00:27N 36°08' W 005°26'0 0.0
2015-Mar-05 23:30N 36°08' W 005°26'0 0.0
2015-Mar-05 22:31N 36°08' W 005°26'0 0.0
2015-Mar-05 21:21N 36°08' W 005°26'0 0.0
2015-Mar-05 20:33N 36°08' W 005°26'0 0.0
2015-Mar-05 16:28N 36°08' W 005°26'1 0.6
2015-Mar-05 15:33N 36°08' W 005°25'0 0.3
2015-Mar-05 14:09N 36°08' W 005°26'0 0.0
2015-Mar-05 13:23N 36°08' W 005°26'0 0.1
2015-Mar-05 11:08N 36°08' W 005°26'3 3.2
2015-Mar-05 10:13N 36°11' W 005°24'2 3.3
2015-Mar-05 09:33N 36°09' W 005°26'1 0.7
2015-Mar-05 08:33N 36°08' W 005°25'1 0.5
2015-Mar-05 07:33N 36°08' W 005°26'0 0.2
2015-Mar-05 06:23N 36°08' W 005°25'0 0.0
2015-Mar-05 03:28N 36°08' W 005°26'1 0.6
2015-Mar-05 02:32N 36°08' W 005°26'1 0.7
2015-Mar-05 01:32N 36°08' W 005°26'0 0.4
2015-Mar-05 00:31N 36°09' W 005°25'1 0.6
2015-Mar-04 23:31N 36°08' W 005°26'0 0.5
2015-Mar-04 22:33N 36°08' W 005°25'0 0.2
2015-Mar-04 21:33N 36°07' W 005°25'0 0.4
2015-Mar-04 20:22N 36°08' W 005°25'0 0.1
2015-Mar-04 18:29N 36°08' W 005°26'1 0.7
2015-Mar-04 17:24N 36°08' W 005°25'1 0.2
2015-Mar-04 13:11N 36°08' W 005°26'0 0.0
2015-Mar-04 07:33N 36°08' W 005°26'0 0.5
2015-Mar-04 06:33N 36°08' W 005°26'0 0.3
2015-Mar-04 05:06N 36°08' W 005°26'0 0.0
2015-Mar-04 03:31N 36°08' W 005°26'0 0.0
2015-Mar-04 02:07N 36°08' W 005°26'1 1.3
2015-Mar-04 01:32N 36°09' W 005°26'1 0.7
2015-Mar-04 00:28N 36°08' W 005°25'0 0.3
2015-Mar-03 23:14N 36°08' W 005°26'0 0.0
2015-Mar-03 21:04N 36°08' W 005°26'0 0.0
2015-Mar-03 20:06N 36°08' W 005°26'0 0.1
2015-Mar-03 16:13N 36°08' W 005°26'0 0.0
2015-Mar-03 15:26N 36°08' W 005°26'0 0.4
2015-Mar-03 14:33N 36°08' W 005°26'1 0.3
2015-Mar-03 12:31N 36°08' W 005°25'0 0.0
2015-Mar-03 09:03N 36°08' W 005°25'0 0.9
2015-Mar-03 08:33N 36°08' W 005°25'0 0.1
2015-Mar-03 05:18N 36°08' W 005°26'0 0.0
2015-Mar-03 04:28N 36°08' W 005°26'0 0.0
2015-Mar-03 03:04N 36°08' W 005°26'0 0.1
2015-Mar-02 21:33N 36°08' W 005°26'1 0.1
2015-Mar-02 15:15N 36°08' W 005°25'0 0.2
2015-Mar-02 14:33N 36°08' W 005°25'0 0.1
2015-Mar-02 12:22N 36°08' W 005°25'1 1.3
2015-Mar-02 11:33N 36°07' W 005°25'2 0.3
2015-Mar-02 04:25N 36°09' W 005°25'1 0.2
2015-Mar-01 22:33N 36°08' W 005°26'0 0.0
2015-Mar-01 21:33N 36°08' W 005°26'0 0.0
2015-Mar-01 20:33N 36°08' W 005°26'0 0.0
2015-Mar-01 19:22N 36°08' W 005°26'0 0.5
2015-Mar-01 18:33N 36°08' W 005°25'0 0.4
2015-Mar-01 17:33N 36°08' W 005°26'0 0.0
2015-Mar-01 10:21N 36°08' W 005°26'0 0.1
2015-Mar-01 09:09N 36°08' W 005°26'0 0.2
2015-Mar-01 06:33N 36°08' W 005°25'0 0.2
2015-Mar-01 05:10N 36°08' W 005°26'0 0.8
2015-Mar-01 04:33N 36°08' W 005°25'0 0.2
2015-Mar-01 02:20N 36°08' W 005°26'0 0.3
2015-Mar-01 01:27N 36°08' W 005°26'1 0.5
2015-Mar-01 00:21N 36°09' W 005°25'1 0.2
2015-Feb-28 20:05N 36°08' W 005°26'0 0.0
2015-Feb-28 19:20N 36°08' W 005°26'0 0.5
2015-Feb-28 18:33N 36°08' W 005°25'0 0.1
2015-Feb-28 14:33N 36°07' W 005°25'2 0.2
2015-Feb-28 07:21N 36°09' W 005°26'0 0.2
2015-Feb-28 06:31N 36°09' W 005°26'1 1.0
2015-Feb-28 05:33N 36°08' W 005°26'1 0.7
2015-Feb-28 04:29N 36°09' W 005°26'1 0.8
2015-Feb-28 03:33N 36°08' W 005°26'0 0.0
2015-Feb-28 02:33N 36°08' W 005°26'0 0.0
2015-Feb-28 01:33N 36°08' W 005°26'0 0.0
2015-Feb-28 00:31N 36°08' W 005°26'0 0.0
2015-Feb-27 23:33N 36°08' W 005°26'0 0.0
2015-Feb-27 22:33N 36°08' W 005°26'0 0.0
2015-Feb-27 21:33N 36°08' W 005°26'0 0.0
2015-Feb-27 20:33N 36°08' W 005°26'0 0.0
2015-Feb-27 19:33N 36°08' W 005°26'0 0.0
2015-Feb-27 18:23N 36°08' W 005°26'0 0.0
2015-Feb-27 17:30N 36°08' W 005°26'0 0.0
2015-Feb-27 16:20N 36°08' W 005°26'0 0.0
2015-Feb-27 15:33N 36°08' W 005°26'0 0.0
2015-Feb-27 14:33N 36°08' W 005°26'1 0.6
2015-Feb-27 13:33N 36°09' W 005°26'1 1.0
2015-Feb-27 12:33N 36°09' W 005°25'1 0.8
2015-Feb-27 11:17N 36°08' W 005°26'0 0.0
2015-Feb-27 10:28N 36°08' W 005°26'0 0.0
2015-Feb-27 09:19N 36°08' W 005°26'0 0.0
2015-Feb-27 08:32N 36°08' W 005°26'0 0.0
2015-Feb-27 07:33N 36°08' W 005°26'0 0.0
2015-Feb-27 06:33N 36°08' W 005°26'0 0.0
2015-Feb-27 05:33N 36°08' W 005°26'0 0.0
2015-Feb-27 04:33N 36°08' W 005°26'0 0.0
2015-Feb-27 03:33N 36°08' W 005°26'0 0.0
2015-Feb-27 02:33N 36°08' W 005°26'0 0.0
2015-Feb-27 01:30N 36°08' W 005°26'0 0.0
2015-Feb-27 00:33N 36°08' W 005°26'0 0.0
2015-Feb-26 23:33N 36°08' W 005°26'0 0.0
2015-Feb-26 22:33N 36°08' W 005°26'0 0.0
2015-Feb-26 21:33N 36°08' W 005°26'0 0.0
2015-Feb-26 20:31N 36°08' W 005°26'0 0.0
2015-Feb-26 18:31N 36°08' W 005°26'0 0.1
2015-Feb-26 14:20N 36°08' W 005°26'1 1.2
2015-Feb-26 13:16N 36°09' W 005°24'1 1.5
2015-Feb-26 12:18N 36°09' W 005°26'1 0.3
2015-Feb-26 10:30N 36°09' W 005°25'1 0.4
2015-Feb-26 08:33N 36°08' W 005°26'0 0.0
2015-Feb-26 07:29N 36°08' W 005°26'0 0.0
2015-Feb-26 05:32N 36°08' W 005°26'0 0.0
2015-Feb-26 04:32N 36°08' W 005°26'0 0.0
2015-Feb-26 03:32N 36°08' W 005°26'0 0.0
2015-Feb-26 02:21N 36°08' W 005°26'0 0.0
2015-Feb-26 01:33N 36°08' W 005°26'0 0.0
2015-Feb-26 00:33N 36°08' W 005°26'0 0.0
2015-Feb-25 23:30N 36°08' W 005°26'0 0.0
2015-Feb-25 22:33N 36°08' W 005°26'0 0.0
2015-Feb-25 21:33N 36°08' W 005°26'1 0.5
2015-Feb-25 20:25N 36°09' W 005°26'1 0.4
2015-Feb-25 19:05N 36°08' W 005°26'1 0.9
2015-Feb-25 18:32N 36°09' W 005°26'0 0.4
2015-Feb-25 17:31N 36°09' W 005°26'1 0.9
2015-Feb-25 16:33N 36°08' W 005°26'0 0.0
2015-Feb-25 15:33N 36°08' W 005°26'0 0.0
2015-Feb-25 14:31N 36°08' W 005°26'1 1.1
2015-Feb-25 13:29N 36°09' W 005°25'1 1.3
2015-Feb-25 12:33N 36°08' W 005°26'1 0.6
2015-Feb-25 11:32N 36°09' W 005°26'1 0.6
2015-Feb-25 10:05N 36°08' W 005°26'0 0.0
2015-Feb-25 08:20N 36°08' W 005°26'0 0.1
2015-Feb-25 07:33N 36°08' W 005°26'0 0.3
2015-Feb-25 06:24N 36°08' W 005°26'1 1.0
2015-Feb-25 05:33N 36°09' W 005°26'1 0.8
2015-Feb-25 04:27N 36°08' W 005°26'0 0.0
2015-Feb-25 03:18N 36°08' W 005°26'0 0.3
2015-Feb-25 02:25N 36°08' W 005°26'0 0.3
2015-Feb-25 01:21N 36°08' W 005°26'1 1.0
2015-Feb-25 00:33N 36°09' W 005°26'0 0.5
2015-Feb-24 23:33N 36°08' W 005°26'0 0.3
2015-Feb-24 22:33N 36°08' W 005°26'0 0.0
2015-Feb-24 18:04N 36°08' W 005°26'1 0.9
2015-Feb-24 17:08N 36°09' W 005°26'1 0.1
2015-Feb-24 08:11N 36°08' W 005°26'1 1.0
2015-Feb-24 07:15N 36°09' W 005°26'1 1.0
2015-Feb-24 06:32N 36°08' W 005°26'  

Dump ship's entire track history